sensor_id;sensor_type;location;lat;lon;timestamp;temperature;humidity
1259;DHT22;619;51.472;6.628;2024-03-08T00:00:28;10.60;60.10
1259;DHT22;619;51.472;6.628;2024-03-08T00:02:54;10.50;60.00
1259;DHT22;619;51.472;6.628;2024-03-08T00:05:19;10.40;60.00
1259;DHT22;619;51.472;6.628;2024-03-08T00:07:45;10.40;60.10
1259;DHT22;619;51.472;6.628;2024-03-08T00:10:14;10.40;60.40
1259;DHT22;619;51.472;6.628;2024-03-08T00:12:46;10.30;60.50
1259;DHT22;619;51.472;6.628;2024-03-08T00:15:16;10.30;60.60
1259;DHT22;619;51.472;6.628;2024-03-08T00:17:42;10.30;60.50
1259;DHT22;619;51.472;6.628;2024-03-08T00:20:13;10.30;60.50
1259;DHT22;619;51.472;6.628;2024-03-08T00:22:39;10.30;60.40
1259;DHT22;619;51.472;6.628;2024-03-08T00:25:08;10.20;60.30
1259;DHT22;619;51.472;6.628;2024-03-08T00:27:44;10.10;60.30
1259;DHT22;619;51.472;6.628;2024-03-08T00:30:10;10.10;60.40
1259;DHT22;619;51.472;6.628;2024-03-08T00:32:38;10.10;60.40
1259;DHT22;619;51.472;6.628;2024-03-08T00:35:04;10.10;60.50
1259;DHT22;619;51.472;6.628;2024-03-08T00:37:32;10.10;60.50
1259;DHT22;619;51.472;6.628;2024-03-08T00:40:00;10.10;60.40
1259;DHT22;619;51.472;6.628;2024-03-08T00:42:28;10.10;60.40
1259;DHT22;619;51.472;6.628;2024-03-08T00:44:53;10.10;60.40
1259;DHT22;619;51.472;6.628;2024-03-08T00:47:19;10.00;61.10
1259;DHT22;619;51.472;6.628;2024-03-08T00:49:45;10.00;60.40
1259;DHT22;619;51.472;6.628;2024-03-08T00:52:14;10.00;60.50
1259;DHT22;619;51.472;6.628;2024-03-08T00:54:42;9.90;61.60
1259;DHT22;619;51.472;6.628;2024-03-08T00:57:08;9.90;61.80
1259;DHT22;619;51.472;6.628;2024-03-08T00:59:38;9.90;61.80
1259;DHT22;619;51.472;6.628;2024-03-08T01:02:03;9.80;61.90
1259;DHT22;619;51.472;6.628;2024-03-08T01:04:32;9.80;62.20
1259;DHT22;619;51.472;6.628;2024-03-08T01:06:59;9.70;62.20
1259;DHT22;619;51.472;6.628;2024-03-08T01:09:25;9.70;62.50
1259;DHT22;619;51.472;6.628;2024-03-08T01:11:54;9.60;62.60
1259;DHT22;619;51.472;6.628;2024-03-08T01:14:21;9.60;63.30
1259;DHT22;619;51.472;6.628;2024-03-08T01:16:49;9.60;62.70
1259;DHT22;619;51.472;6.628;2024-03-08T01:19:17;9.60;62.60
1259;DHT22;619;51.472;6.628;2024-03-08T01:21:43;9.50;63.20
1259;DHT22;619;51.472;6.628;2024-03-08T01:24:09;9.40;62.70
1259;DHT22;619;51.472;6.628;2024-03-08T01:26:34;9.40;63.00
1259;DHT22;619;51.472;6.628;2024-03-08T01:29:03;9.50;63.00
1259;DHT22;619;51.472;6.628;2024-03-08T01:31:29;9.40;62.90
1259;DHT22;619;51.472;6.628;2024-03-08T01:33:56;9.50;62.90
1259;DHT22;619;51.472;6.628;2024-03-08T01:36:21;9.40;62.70
1259;DHT22;619;51.472;6.628;2024-03-08T01:38:47;9.40;62.90
1259;DHT22;619;51.472;6.628;2024-03-08T01:41:13;9.40;62.90
1259;DHT22;619;51.472;6.628;2024-03-08T01:43:39;9.40;62.90
1259;DHT22;619;51.472;6.628;2024-03-08T01:46:07;9.40;62.60
1259;DHT22;619;51.472;6.628;2024-03-08T01:48:38;9.30;62.40
1259;DHT22;619;51.472;6.628;2024-03-08T01:51:06;9.30;62.40
1259;DHT22;619;51.472;6.628;2024-03-08T01:53:33;9.20;62.20
1259;DHT22;619;51.472;6.628;2024-03-08T01:56:00;9.20;62.30
1259;DHT22;619;51.472;6.628;2024-03-08T01:58:30;9.10;62.40
1259;DHT22;619;51.472;6.628;2024-03-08T02:00:58;9.10;63.30
1259;DHT22;619;51.472;6.628;2024-03-08T02:03:27;9.10;62.70
1259;DHT22;619;51.472;6.628;2024-03-08T02:05:55;9.00;62.70
1259;DHT22;619;51.472;6.628;2024-03-08T02:08:21;9.00;62.70
1259;DHT22;619;51.472;6.628;2024-03-08T02:10:50;9.00;63.40
1259;DHT22;619;51.472;6.628;2024-03-08T02:13:16;9.00;62.70
1259;DHT22;619;51.472;6.628;2024-03-08T02:15:58;9.00;62.80
1259;DHT22;619;51.472;6.628;2024-03-08T02:18:30;9.00;63.00
1259;DHT22;619;51.472;6.628;2024-03-08T02:20:57;9.10;63.00
1259;DHT22;619;51.472;6.628;2024-03-08T02:23:23;9.10;63.10
1259;DHT22;619;51.472;6.628;2024-03-08T02:25:54;9.10;63.00
1259;DHT22;619;51.472;6.628;2024-03-08T02:28:20;9.10;63.10
1259;DHT22;619;51.472;6.628;2024-03-08T02:30:47;9.00;63.00
1259;DHT22;619;51.472;6.628;2024-03-08T02:33:16;9.00;63.00
1259;DHT22;619;51.472;6.628;2024-03-08T02:35:45;9.00;63.10
1259;DHT22;619;51.472;6.628;2024-03-08T02:38:15;9.00;63.10
1259;DHT22;619;51.472;6.628;2024-03-08T02:40:42;8.90;63.10
1259;DHT22;619;51.472;6.628;2024-03-08T02:43:11;8.90;63.30
1259;DHT22;619;51.472;6.628;2024-03-08T02:45:37;8.80;63.30
1259;DHT22;619;51.472;6.628;2024-03-08T02:48:04;8.80;63.30
1259;DHT22;619;51.472;6.628;2024-03-08T02:50:33;8.70;63.50
1259;DHT22;619;51.472;6.628;2024-03-08T02:53:00;8.70;63.60
1259;DHT22;619;51.472;6.628;2024-03-08T02:55:26;8.60;63.80
1259;DHT22;619;51.472;6.628;2024-03-08T02:57:52;8.50;64.00
1259;DHT22;619;51.472;6.628;2024-03-08T03:00:20;8.50;64.20
1259;DHT22;619;51.472;6.628;2024-03-08T03:02:50;8.40;64.10
1259;DHT22;619;51.472;6.628;2024-03-08T03:05:24;8.40;64.30
1259;DHT22;619;51.472;6.628;2024-03-08T03:07:50;8.40;64.40
1259;DHT22;619;51.472;6.628;2024-03-08T03:10:17;8.40;64.40
1259;DHT22;619;51.472;6.628;2024-03-08T03:12:47;8.40;64.30
1259;DHT22;619;51.472;6.628;2024-03-08T03:15:16;8.30;64.30
1259;DHT22;619;51.472;6.628;2024-03-08T03:17:49;8.20;64.40
1259;DHT22;619;51.472;6.628;2024-03-08T03:20:19;8.30;64.60
1259;DHT22;619;51.472;6.628;2024-03-08T03:22:58;8.20;65.10
1259;DHT22;619;51.472;6.628;2024-03-08T03:25:27;8.20;64.40
1259;DHT22;619;51.472;6.628;2024-03-08T03:27:59;8.20;64.30
1259;DHT22;619;51.472;6.628;2024-03-08T03:30:25;8.20;64.40
1259;DHT22;619;51.472;6.628;2024-03-08T03:33:04;8.20;65.20
1259;DHT22;619;51.472;6.628;2024-03-08T03:35:33;8.20;64.50
1259;DHT22;619;51.472;6.628;2024-03-08T03:37:59;8.20;64.40
1259;DHT22;619;51.472;6.628;2024-03-08T03:40:37;8.20;64.40
1259;DHT22;619;51.472;6.628;2024-03-08T03:43:03;8.20;64.40
1259;DHT22;619;51.472;6.628;2024-03-08T03:45:29;8.20;64.40
1259;DHT22;619;51.472;6.628;2024-03-08T03:47:59;8.10;64.30
1259;DHT22;619;51.472;6.628;2024-03-08T03:50:26;8.10;64.50
1259;DHT22;619;51.472;6.628;2024-03-08T03:52:51;8.10;64.60
1259;DHT22;619;51.472;6.628;2024-03-08T03:55:17;8.10;64.60
1259;DHT22;619;51.472;6.628;2024-03-08T03:57:43;8.10;64.70
1259;DHT22;619;51.472;6.628;2024-03-08T04:00:11;8.00;64.70
1259;DHT22;619;51.472;6.628;2024-03-08T04:02:40;8.00;65.00
1259;DHT22;619;51.472;6.628;2024-03-08T04:05:08;8.00;65.50
1259;DHT22;619;51.472;6.628;2024-03-08T04:07:35;8.00;64.70
1259;DHT22;619;51.472;6.628;2024-03-08T04:10:03;8.00;64.80
1259;DHT22;619;51.472;6.628;2024-03-08T04:12:28;8.00;64.80
1259;DHT22;619;51.472;6.628;2024-03-08T04:14:57;8.00;64.80
1259;DHT22;619;51.472;6.628;2024-03-08T04:17:23;8.00;64.90
1259;DHT22;619;51.472;6.628;2024-03-08T04:19:51;8.00;64.90
1259;DHT22;619;51.472;6.628;2024-03-08T04:22:20;8.00;65.00
1259;DHT22;619;51.472;6.628;2024-03-08T04:24:46;8.00;64.80
1259;DHT22;619;51.472;6.628;2024-03-08T04:27:12;8.00;64.80
1259;DHT22;619;51.472;6.628;2024-03-08T04:29:38;8.00;64.80
1259;DHT22;619;51.472;6.628;2024-03-08T04:32:07;8.10;64.70
1259;DHT22;619;51.472;6.628;2024-03-08T04:34:37;8.10;64.60
1259;DHT22;619;51.472;6.628;2024-03-08T04:37:03;8.10;64.80
1259;DHT22;619;51.472;6.628;2024-03-08T04:39:32;8.10;64.60
1259;DHT22;619;51.472;6.628;2024-03-08T04:42:01;8.10;64.80
1259;DHT22;619;51.472;6.628;2024-03-08T04:44:29;8.10;64.90
1259;DHT22;619;51.472;6.628;2024-03-08T04:46:55;8.00;65.00
1259;DHT22;619;51.472;6.628;2024-03-08T04:49:20;8.00;65.10
1259;DHT22;619;51.472;6.628;2024-03-08T04:51:50;8.00;65.10
1259;DHT22;619;51.472;6.628;2024-03-08T04:54:20;8.00;65.00
1259;DHT22;619;51.472;6.628;2024-03-08T04:56:46;8.00;65.30
1259;DHT22;619;51.472;6.628;2024-03-08T04:59:14;8.10;65.50
1259;DHT22;619;51.472;6.628;2024-03-08T05:01:40;8.00;65.30
1259;DHT22;619;51.472;6.628;2024-03-08T05:04:05;8.00;65.30
1259;DHT22;619;51.472;6.628;2024-03-08T05:06:34;8.00;65.20
1259;DHT22;619;51.472;6.628;2024-03-08T05:08:59;8.00;65.30
1259;DHT22;619;51.472;6.628;2024-03-08T05:11:25;8.00;65.60
1259;DHT22;619;51.472;6.628;2024-03-08T05:13:51;8.00;65.50
1259;DHT22;619;51.472;6.628;2024-03-08T05:16:21;8.00;65.50
1259;DHT22;619;51.472;6.628;2024-03-08T05:18:48;8.00;65.50
1259;DHT22;619;51.472;6.628;2024-03-08T05:21:13;8.00;65.40
1259;DHT22;619;51.472;6.628;2024-03-08T05:23:41;7.90;65.50
1259;DHT22;619;51.472;6.628;2024-03-08T05:26:07;7.90;65.70
1259;DHT22;619;51.472;6.628;2024-03-08T05:28:32;8.00;65.90
1259;DHT22;619;51.472;6.628;2024-03-08T05:30:58;8.00;65.60
1259;DHT22;619;51.472;6.628;2024-03-08T05:33:26;8.10;65.70
1259;DHT22;619;51.472;6.628;2024-03-08T05:35:52;8.10;65.70
1259;DHT22;619;51.472;6.628;2024-03-08T05:38:17;8.10;65.70
1259;DHT22;619;51.472;6.628;2024-03-08T05:40:43;8.10;65.70
1259;DHT22;619;51.472;6.628;2024-03-08T05:43:09;8.10;65.60
1259;DHT22;619;51.472;6.628;2024-03-08T05:45:35;8.00;65.90
1259;DHT22;619;51.472;6.628;2024-03-08T05:48:00;8.00;65.50
1259;DHT22;619;51.472;6.628;2024-03-08T05:50:26;8.00;65.60
1259;DHT22;619;51.472;6.628;2024-03-08T05:52:52;8.00;65.60
1259;DHT22;619;51.472;6.628;2024-03-08T05:55:20;8.00;65.70
1259;DHT22;619;51.472;6.628;2024-03-08T05:57:46;7.90;66.00
1259;DHT22;619;51.472;6.628;2024-03-08T06:00:12;7.90;66.00
1259;DHT22;619;51.472;6.628;2024-03-08T06:02:41;7.80;66.00
1259;DHT22;619;51.472;6.628;2024-03-08T06:05:13;7.80;66.00
1259;DHT22;619;51.472;6.628;2024-03-08T06:07:38;7.80;66.00
1259;DHT22;619;51.472;6.628;2024-03-08T06:10:09;7.80;66.10
1259;DHT22;619;51.472;6.628;2024-03-08T06:12:36;7.80;66.20
1259;DHT22;619;51.472;6.628;2024-03-08T06:15:08;7.80;66.20
1259;DHT22;619;51.472;6.628;2024-03-08T06:17:42;7.70;66.20
1259;DHT22;619;51.472;6.628;2024-03-08T06:20:08;7.70;66.30
1259;DHT22;619;51.472;6.628;2024-03-08T06:22:40;7.70;66.40
1259;DHT22;619;51.472;6.628;2024-03-08T06:25:10;7.80;66.30
1259;DHT22;619;51.472;6.628;2024-03-08T06:27:40;7.80;66.30
1259;DHT22;619;51.472;6.628;2024-03-08T06:30:08;7.80;66.30
1259;DHT22;619;51.472;6.628;2024-03-08T06:32:37;7.80;66.30
1259;DHT22;619;51.472;6.628;2024-03-08T06:35:04;7.90;66.40
1259;DHT22;619;51.472;6.628;2024-03-08T06:37:33;7.90;66.60
1259;DHT22;619;51.472;6.628;2024-03-08T06:39:59;7.90;66.60
1259;DHT22;619;51.472;6.628;2024-03-08T06:42:26;7.90;66.60
1259;DHT22;619;51.472;6.628;2024-03-08T06:44:55;7.90;66.70
1259;DHT22;619;51.472;6.628;2024-03-08T06:47:25;7.90;66.60
1259;DHT22;619;51.472;6.628;2024-03-08T06:49:51;7.90;66.30
1259;DHT22;619;51.472;6.628;2024-03-08T06:52:17;7.90;66.30
1259;DHT22;619;51.472;6.628;2024-03-08T06:54:52;7.90;66.30
1259;DHT22;619;51.472;6.628;2024-03-08T06:57:18;8.00;66.50
1259;DHT22;619;51.472;6.628;2024-03-08T06:59:49;8.00;66.50
1259;DHT22;619;51.472;6.628;2024-03-08T07:02:16;8.00;66.30
1259;DHT22;619;51.472;6.628;2024-03-08T07:04:42;8.10;66.20
1259;DHT22;619;51.472;6.628;2024-03-08T07:07:07;8.10;66.20
1259;DHT22;619;51.472;6.628;2024-03-08T07:09:35;8.10;66.00
1259;DHT22;619;51.472;6.628;2024-03-08T07:12:01;8.10;65.70
1259;DHT22;619;51.472;6.628;2024-03-08T07:14:29;8.10;65.90
1259;DHT22;619;51.472;6.628;2024-03-08T07:16:56;8.10;65.80
1259;DHT22;619;51.472;6.628;2024-03-08T07:19:22;8.10;65.90
1259;DHT22;619;51.472;6.628;2024-03-08T07:21:50;8.20;66.80
1259;DHT22;619;51.472;6.628;2024-03-08T07:24:16;8.20;65.80
1259;DHT22;619;51.472;6.628;2024-03-08T07:27:07;8.20;65.60
1259;DHT22;619;51.472;6.628;2024-03-08T07:29:33;8.30;65.60
1259;DHT22;619;51.472;6.628;2024-03-08T07:32:01;8.40;65.50
1259;DHT22;619;51.472;6.628;2024-03-08T07:34:43;8.50;65.40
1259;DHT22;619;51.472;6.628;2024-03-08T07:37:09;8.60;65.40
1259;DHT22;619;51.472;6.628;2024-03-08T07:39:40;8.70;65.30
1259;DHT22;619;51.472;6.628;2024-03-08T07:42:09;8.80;65.30
1259;DHT22;619;51.472;6.628;2024-03-08T07:44:35;8.90;65.30
1259;DHT22;619;51.472;6.628;2024-03-08T07:47:01;9.00;65.10
1259;DHT22;619;51.472;6.628;2024-03-08T07:49:26;9.00;64.90
1259;DHT22;619;51.472;6.628;2024-03-08T07:51:52;9.10;64.90
1259;DHT22;619;51.472;6.628;2024-03-08T07:54:18;9.20;64.70
1259;DHT22;619;51.472;6.628;2024-03-08T07:56:43;9.30;64.70
1259;DHT22;619;51.472;6.628;2024-03-08T07:59:09;9.30;64.20
1259;DHT22;619;51.472;6.628;2024-03-08T08:01:39;9.30;64.10
1259;DHT22;619;51.472;6.628;2024-03-08T08:04:05;9.40;64.30
1259;DHT22;619;51.472;6.628;2024-03-08T08:06:31;9.40;64.20
1259;DHT22;619;51.472;6.628;2024-03-08T08:09:00;9.50;64.10
1259;DHT22;619;51.472;6.628;2024-03-08T08:11:31;9.70;64.20
1259;DHT22;619;51.472;6.628;2024-03-08T08:13:58;9.80;63.80
1259;DHT22;619;51.472;6.628;2024-03-08T08:16:25;9.80;63.40
1259;DHT22;619;51.472;6.628;2024-03-08T08:18:51;9.80;63.20
1259;DHT22;619;51.472;6.628;2024-03-08T08:21:18;9.80;63.30
1259;DHT22;619;51.472;6.628;2024-03-08T08:23:44;9.90;63.60
1259;DHT22;619;51.472;6.628;2024-03-08T08:26:10;9.90;63.60
1259;DHT22;619;51.472;6.628;2024-03-08T08:28:36;10.00;62.30
1259;DHT22;619;51.472;6.628;2024-03-08T08:31:06;10.10;62.40
1259;DHT22;619;51.472;6.628;2024-03-08T08:33:33;10.20;62.10
1259;DHT22;619;51.472;6.628;2024-03-08T08:36:02;10.30;62.10
1259;DHT22;619;51.472;6.628;2024-03-08T08:38:28;10.50;61.80
1259;DHT22;619;51.472;6.628;2024-03-08T08:40:57;10.50;61.10
1259;DHT22;619;51.472;6.628;2024-03-08T08:43:23;10.60;61.10
1259;DHT22;619;51.472;6.628;2024-03-08T08:45:50;10.70;60.90
1259;DHT22;619;51.472;6.628;2024-03-08T08:48:19;10.90;61.10
1259;DHT22;619;51.472;6.628;2024-03-08T08:50:45;11.10;60.90
1259;DHT22;619;51.472;6.628;2024-03-08T08:53:12;11.20;60.60
1259;DHT22;619;51.472;6.628;2024-03-08T08:55:40;11.20;60.30
1259;DHT22;619;51.472;6.628;2024-03-08T08:58:06;11.40;60.40
1259;DHT22;619;51.472;6.628;2024-03-08T09:00:33;11.60;60.30
1259;DHT22;619;51.472;6.628;2024-03-08T09:03:00;11.70;59.80
1259;DHT22;619;51.472;6.628;2024-03-08T09:05:28;11.70;59.40
1259;DHT22;619;51.472;6.628;2024-03-08T09:07:54;11.80;59.20
1259;DHT22;619;51.472;6.628;2024-03-08T09:10:22;11.80;58.50
1259;DHT22;619;51.472;6.628;2024-03-08T09:12:48;11.80;58.50
1259;DHT22;619;51.472;6.628;2024-03-08T09:15:16;11.90;59.10
1259;DHT22;619;51.472;6.628;2024-03-08T09:17:45;12.00;58.80
1259;DHT22;619;51.472;6.628;2024-03-08T09:20:14;12.10;58.90
1259;DHT22;619;51.472;6.628;2024-03-08T09:22:43;12.30;58.70
1259;DHT22;619;51.472;6.628;2024-03-08T09:25:09;12.40;58.40
1259;DHT22;619;51.472;6.628;2024-03-08T09:27:35;12.40;58.00
1259;DHT22;619;51.472;6.628;2024-03-08T09:30:01;12.50;57.90
1259;DHT22;619;51.472;6.628;2024-03-08T09:32:30;12.60;57.90
1259;DHT22;619;51.472;6.628;2024-03-08T09:35:00;12.60;57.30
1259;DHT22;619;51.472;6.628;2024-03-08T09:37:26;12.60;57.40
1259;DHT22;619;51.472;6.628;2024-03-08T09:39:52;12.70;57.70
1259;DHT22;619;51.472;6.628;2024-03-08T09:42:18;12.80;57.30
1259;DHT22;619;51.472;6.628;2024-03-08T09:44:45;12.90;57.30
1259;DHT22;619;51.472;6.628;2024-03-08T09:47:13;13.10;57.10
1259;DHT22;619;51.472;6.628;2024-03-08T09:49:42;13.20;56.90
1259;DHT22;619;51.472;6.628;2024-03-08T09:52:09;13.20;56.40
1259;DHT22;619;51.472;6.628;2024-03-08T09:54:35;13.20;56.50
1259;DHT22;619;51.472;6.628;2024-03-08T09:57:03;13.30;56.70
1259;DHT22;619;51.472;6.628;2024-03-08T09:59:33;13.30;56.50
1259;DHT22;619;51.472;6.628;2024-03-08T10:02:02;13.40;56.30
1259;DHT22;619;51.472;6.628;2024-03-08T10:04:30;13.60;56.50
1259;DHT22;619;51.472;6.628;2024-03-08T10:07:03;13.70;55.70
1259;DHT22;619;51.472;6.628;2024-03-08T10:09:28;13.70;55.60
1259;DHT22;619;51.472;6.628;2024-03-08T10:11:57;13.80;55.80
1259;DHT22;619;51.472;6.628;2024-03-08T10:14:27;13.90;55.50
1259;DHT22;619;51.472;6.628;2024-03-08T10:16:55;13.90;55.00
1259;DHT22;619;51.472;6.628;2024-03-08T10:19:25;14.00;55.40
1259;DHT22;619;51.472;6.628;2024-03-08T10:21:51;14.00;55.10
1259;DHT22;619;51.472;6.628;2024-03-08T10:24:19;14.10;55.30
1259;DHT22;619;51.472;6.628;2024-03-08T10:26:47;14.00;54.60
1259;DHT22;619;51.472;6.628;2024-03-08T10:29:15;14.10;55.20
1259;DHT22;619;51.472;6.628;2024-03-08T10:31:48;14.10;55.40
1259;DHT22;619;51.472;6.628;2024-03-08T10:34:15;14.20;55.20
1259;DHT22;619;51.472;6.628;2024-03-08T10:36:41;14.20;54.80
1259;DHT22;619;51.472;6.628;2024-03-08T10:39:27;14.30;54.90
1259;DHT22;619;51.472;6.628;2024-03-08T10:41:57;14.40;54.60
1259;DHT22;619;51.472;6.628;2024-03-08T10:49:31;14.60;54.80
1259;DHT22;619;51.472;6.628;2024-03-08T10:52:03;14.70;54.80
1259;DHT22;619;51.472;6.628;2024-03-08T10:54:33;14.90;55.40
1259;DHT22;619;51.472;6.628;2024-03-08T10:57:01;14.90;53.80
1259;DHT22;619;51.472;6.628;2024-03-08T10:59:29;14.90;53.60
1259;DHT22;619;51.472;6.628;2024-03-08T11:01:55;14.90;53.60
1259;DHT22;619;51.472;6.628;2024-03-08T11:04:23;15.00;53.80
1259;DHT22;619;51.472;6.628;2024-03-08T11:06:50;15.00;53.40
1259;DHT22;619;51.472;6.628;2024-03-08T11:09:33;15.10;53.70
1259;DHT22;619;51.472;6.628;2024-03-08T11:14:53;15.20;53.40
1259;DHT22;619;51.472;6.628;2024-03-08T11:17:39;15.30;53.10
1259;DHT22;619;51.472;6.628;2024-03-08T11:22:48;15.60;53.30
1259;DHT22;619;51.472;6.628;2024-03-08T11:25:32;15.80;53.20
1259;DHT22;619;51.472;6.628;2024-03-08T11:28:27;15.90;53.50
1259;DHT22;619;51.472;6.628;2024-03-08T11:33:27;16.30;52.20
1259;DHT22;619;51.472;6.628;2024-03-08T11:38:43;16.50;52.40
1259;DHT22;619;51.472;6.628;2024-03-08T11:41:09;16.50;51.60
1259;DHT22;619;51.472;6.628;2024-03-08T11:43:41;16.60;51.40
1259;DHT22;619;51.472;6.628;2024-03-08T11:46:14;16.70;51.40
1259;DHT22;619;51.472;6.628;2024-03-08T11:48:44;16.80;51.40
1259;DHT22;619;51.472;6.628;2024-03-08T11:51:15;16.80;51.20
1259;DHT22;619;51.472;6.628;2024-03-08T11:53:44;16.60;50.80
1259;DHT22;619;51.472;6.628;2024-03-08T11:56:12;16.40;51.20
1259;DHT22;619;51.472;6.628;2024-03-08T11:58:38;16.30;51.50
1259;DHT22;619;51.472;6.628;2024-03-08T12:01:10;16.30;51.70
1259;DHT22;619;51.472;6.628;2024-03-08T12:03:42;16.30;51.50
1259;DHT22;619;51.472;6.628;2024-03-08T12:06:09;16.30;51.50
1259;DHT22;619;51.472;6.628;2024-03-08T12:08:37;16.20;51.40
1259;DHT22;619;51.472;6.628;2024-03-08T12:11:07;16.00;51.60
1259;DHT22;619;51.472;6.628;2024-03-08T12:13:35;16.00;51.70
1259;DHT22;619;51.472;6.628;2024-03-08T12:16:04;16.10;52.20
1259;DHT22;619;51.472;6.628;2024-03-08T12:18:36;16.10;52.10
1259;DHT22;619;51.472;6.628;2024-03-08T12:21:10;16.20;52.10
1259;DHT22;619;51.472;6.628;2024-03-08T12:23:38;16.20;51.90
1259;DHT22;619;51.472;6.628;2024-03-08T12:26:18;16.20;51.80
1259;DHT22;619;51.472;6.628;2024-03-08T12:28:48;16.20;51.90
1259;DHT22;619;51.472;6.628;2024-03-08T12:31:17;16.20;51.80
1259;DHT22;619;51.472;6.628;2024-03-08T12:33:50;16.40;52.00
1259;DHT22;619;51.472;6.628;2024-03-08T12:36:16;16.50;51.90
1259;DHT22;619;51.472;6.628;2024-03-08T12:38:46;16.60;51.40
1259;DHT22;619;51.472;6.628;2024-03-08T12:41:19;16.60;51.10
1259;DHT22;619;51.472;6.628;2024-03-08T12:43:45;16.60;50.70
1259;DHT22;619;51.472;6.628;2024-03-08T12:46:22;16.70;51.00
1259;DHT22;619;51.472;6.628;2024-03-08T12:48:51;17.00;52.40
1259;DHT22;619;51.472;6.628;2024-03-08T12:51:20;17.00;50.80
1259;DHT22;619;51.472;6.628;2024-03-08T12:53:48;17.10;50.70
1259;DHT22;619;51.472;6.628;2024-03-08T12:56:29;17.30;51.10
1259;DHT22;619;51.472;6.628;2024-03-08T12:58:58;17.60;50.80
1259;DHT22;619;51.472;6.628;2024-03-08T13:01:24;17.60;50.10
1259;DHT22;619;51.472;6.628;2024-03-08T13:03:50;17.50;49.70
1259;DHT22;619;51.472;6.628;2024-03-08T13:06:15;17.60;50.10
1259;DHT22;619;51.472;6.628;2024-03-08T13:08:41;17.70;50.10
1259;DHT22;619;51.472;6.628;2024-03-08T13:11:11;17.80;49.90
1259;DHT22;619;51.472;6.628;2024-03-08T13:13:37;17.90;50.00
1259;DHT22;619;51.472;6.628;2024-03-08T13:16:06;18.10;49.70
1259;DHT22;619;51.472;6.628;2024-03-08T13:18:37;18.10;49.90
1259;DHT22;619;51.472;6.628;2024-03-08T13:21:05;18.20;49.10
1259;DHT22;619;51.472;6.628;2024-03-08T13:23:38;18.30;48.90
1259;DHT22;619;51.472;6.628;2024-03-08T13:26:13;18.40;48.50
1259;DHT22;619;51.472;6.628;2024-03-08T13:28:45;18.50;48.70
1259;DHT22;619;51.472;6.628;2024-03-08T13:31:16;18.40;48.40
1259;DHT22;619;51.472;6.628;2024-03-08T13:33:45;18.50;48.80
1259;DHT22;619;51.472;6.628;2024-03-08T13:36:12;18.60;48.70
1259;DHT22;619;51.472;6.628;2024-03-08T13:38:45;18.70;48.50
1259;DHT22;619;51.472;6.628;2024-03-08T13:41:12;18.80;47.80
1259;DHT22;619;51.472;6.628;2024-03-08T13:43:43;18.80;47.90
1259;DHT22;619;51.472;6.628;2024-03-08T13:46:15;19.00;47.80
1259;DHT22;619;51.472;6.628;2024-03-08T13:48:40;19.00;47.30
1259;DHT22;619;51.472;6.628;2024-03-08T13:51:06;19.10;47.40
1259;DHT22;619;51.472;6.628;2024-03-08T13:53:33;18.90;45.90
1259;DHT22;619;51.472;6.628;2024-03-08T13:56:01;18.90;46.40
1259;DHT22;619;51.472;6.628;2024-03-08T13:58:29;19.00;46.60
1259;DHT22;619;51.472;6.628;2024-03-08T14:00:57;19.10;46.20
1259;DHT22;619;51.472;6.628;2024-03-08T14:03:23;19.20;46.00
1259;DHT22;619;51.472;6.628;2024-03-08T14:05:49;19.10;45.20
1259;DHT22;619;51.472;6.628;2024-03-08T14:08:15;19.30;44.80
1259;DHT22;619;51.472;6.628;2024-03-08T14:10:45;19.40;44.60
1259;DHT22;619;51.472;6.628;2024-03-08T14:13:18;19.50;44.50
1259;DHT22;619;51.472;6.628;2024-03-08T14:15:46;19.50;44.40
1259;DHT22;619;51.472;6.628;2024-03-08T14:18:16;19.60;44.10
1259;DHT22;619;51.472;6.628;2024-03-08T14:20:44;19.70;43.60
1259;DHT22;619;51.472;6.628;2024-03-08T14:23:10;19.70;43.50
1259;DHT22;619;51.472;6.628;2024-03-08T14:25:38;19.80;43.60
1259;DHT22;619;51.472;6.628;2024-03-08T14:28:04;19.80;44.20
1259;DHT22;619;51.472;6.628;2024-03-08T14:30:33;20.00;43.80
1259;DHT22;619;51.472;6.628;2024-03-08T14:33:04;20.10;44.00
1259;DHT22;619;51.472;6.628;2024-03-08T14:35:31;20.20;43.00
1259;DHT22;619;51.472;6.628;2024-03-08T14:37:59;20.20;41.90
1259;DHT22;619;51.472;6.628;2024-03-08T14:40:27;20.10;42.00
1259;DHT22;619;51.472;6.628;2024-03-08T14:42:53;20.10;42.30
1259;DHT22;619;51.472;6.628;2024-03-08T14:45:19;20.00;42.30
1259;DHT22;619;51.472;6.628;2024-03-08T14:47:48;20.00;42.60
1259;DHT22;619;51.472;6.628;2024-03-08T14:50:23;20.00;42.70
1259;DHT22;619;51.472;6.628;2024-03-08T14:52:49;20.00;42.60
1259;DHT22;619;51.472;6.628;2024-03-08T14:55:16;19.90;42.70
1259;DHT22;619;51.472;6.628;2024-03-08T14:57:42;19.80;42.60
1259;DHT22;619;51.472;6.628;2024-03-08T15:00:14;19.80;43.20
1259;DHT22;619;51.472;6.628;2024-03-08T15:02:44;19.80;43.00
1259;DHT22;619;51.472;6.628;2024-03-08T15:05:10;19.70;43.00
1259;DHT22;619;51.472;6.628;2024-03-08T15:07:38;19.60;43.50
1259;DHT22;619;51.472;6.628;2024-03-08T15:10:07;19.40;43.70
1259;DHT22;619;51.472;6.628;2024-03-08T15:12:37;19.40;44.10
1259;DHT22;619;51.472;6.628;2024-03-08T15:15:08;19.50;44.30
1259;DHT22;619;51.472;6.628;2024-03-08T15:17:37;19.50;44.10
1259;DHT22;619;51.472;6.628;2024-03-08T15:20:06;19.50;44.00
1259;DHT22;619;51.472;6.628;2024-03-08T15:22:41;19.40;43.80
1259;DHT22;619;51.472;6.628;2024-03-08T15:25:07;19.30;44.10
1259;DHT22;619;51.472;6.628;2024-03-08T15:27:35;19.40;44.10
1259;DHT22;619;51.472;6.628;2024-03-08T15:30:04;19.30;43.80
1259;DHT22;619;51.472;6.628;2024-03-08T15:32:33;19.20;43.70
1259;DHT22;619;51.472;6.628;2024-03-08T15:34:59;19.20;44.10
1259;DHT22;619;51.472;6.628;2024-03-08T15:37:26;19.30;44.20
1259;DHT22;619;51.472;6.628;2024-03-08T15:42:19;19.40;43.10
1259;DHT22;619;51.472;6.628;2024-03-08T15:44:45;19.40;44.60
1259;DHT22;619;51.472;6.628;2024-03-08T15:47:13;19.40;43.80
1259;DHT22;619;51.472;6.628;2024-03-08T15:49:38;19.40;43.70
1259;DHT22;619;51.472;6.628;2024-03-08T15:52:10;19.30;43.80
1259;DHT22;619;51.472;6.628;2024-03-08T15:54:37;19.30;43.60
1259;DHT22;619;51.472;6.628;2024-03-08T15:57:05;19.30;43.80
1259;DHT22;619;51.472;6.628;2024-03-08T15:59:36;19.30;43.80
1259;DHT22;619;51.472;6.628;2024-03-08T16:02:02;19.20;43.80
1259;DHT22;619;51.472;6.628;2024-03-08T16:04:31;19.20;43.80
1259;DHT22;619;51.472;6.628;2024-03-08T16:06:59;19.20;44.00
1259;DHT22;619;51.472;6.628;2024-03-08T16:09:25;19.10;44.00
1259;DHT22;619;51.472;6.628;2024-03-08T16:11:57;19.10;44.50
1259;DHT22;619;51.472;6.628;2024-03-08T16:14:23;18.90;44.50
1259;DHT22;619;51.472;6.628;2024-03-08T16:16:49;18.70;44.70
1259;DHT22;619;51.472;6.628;2024-03-08T16:19:15;18.70;45.10
1259;DHT22;619;51.472;6.628;2024-03-08T16:21:41;18.60;45.30
1259;DHT22;619;51.472;6.628;2024-03-08T16:24:09;18.60;45.50
1259;DHT22;619;51.472;6.628;2024-03-08T16:26:37;18.50;45.20
1259;DHT22;619;51.472;6.628;2024-03-08T16:29:05;18.50;45.70
1259;DHT22;619;51.472;6.628;2024-03-08T16:31:35;18.50;45.50
1259;DHT22;619;51.472;6.628;2024-03-08T16:34:05;18.50;45.50
1259;DHT22;619;51.472;6.628;2024-03-08T16:36:30;18.50;45.40
1259;DHT22;619;51.472;6.628;2024-03-08T16:39:00;18.50;45.60
1259;DHT22;619;51.472;6.628;2024-03-08T16:41:25;18.50;45.00
1259;DHT22;619;51.472;6.628;2024-03-08T16:43:51;18.40;44.90
1259;DHT22;619;51.472;6.628;2024-03-08T16:46:17;18.20;45.00
1259;DHT22;619;51.472;6.628;2024-03-08T16:48:42;18.00;45.40